Terminal Aerodrome Forecast
Issued by NWS

Home | Current Version | Previous Version | Text Only | Print | Product List | Glossary On
Versions: 1 2 3 4 5 6 7 8 9 10 11 12 13 14 15 16 17
000
FTUS46 KSEW 241700
TAFBLI
TAF
KBLI 241734Z 2418/2518 15008G17KT P6SM VCSH SCT021 SCT028 OVC045
      TEMPO 2419/2423 P6SM -SHRA BKN025 OVC045
     FM242300 21012KT P6SM VCSH BKN050 BKN200
     FM250300 20006KT P6SM BKN200
     FM251200 VRB05KT P6SM BKN045=

USA.gov is the U.S. government's official web portal to all federal, state and local government web resources and services.